Time;durP1;ratioP1;P1;durP2;ratioP2;P2;SDS_P1;SDS_P2;PMS_P1;PMS_P2;Temp;Humidity;BMP_temperature;BMP_pressure;BME280_temperature;BME280_humidity;BME280_pressure;Samples;Min_cycle;Max_cycle;Signal;HPM_P1;HPM_P2
2022/08/09 00:01:49;;;;;;;328.42;235.88;;;13.60;96.10;;;;;;4990210;28;20114;-70
2022/08/09 00:04:18;;;;;;;316.38;219.05;;;13.50;96.10;;;;;;4985519;28;20174;-70
2022/08/09 00:06:44;;;;;;;320.75;224.10;;;13.50;96.20;;;;;;4970917;28;20039;-70
2022/08/09 00:09:12;;;;;;;273.83;189.93;;;13.50;96.20;;;;;;4971790;28;20063;-70
2022/08/09 00:11:39;;;;;;;275.50;192.75;;;13.40;96.20;;;;;;4970550;28;20055;-70
2022/08/09 00:14:08;;;;;;;277.67;188.90;;;13.40;96.20;;;;;;4970461;28;20062;-70
2022/08/09 00:16:35;;;;;;;281.02;192.18;;;13.30;96.20;;;;;;4970435;28;20567;-70
2022/08/09 00:19:02;;;;;;;282.27;190.63;;;13.30;96.30;;;;;;4971378;28;20151;-70
2022/08/09 00:21:29;;;;;;;357.27;194.98;;;13.20;96.20;;;;;;4970893;28;20051;-70
2022/08/09 00:23:57;;;;;;;269.52;185.45;;;13.20;96.30;;;;;;4970145;28;20139;-70
2022/08/09 00:26:24;;;;;;;285.02;184.10;;;13.10;96.30;;;;;;4971207;28;20056;-70
2022/08/09 00:28:52;;;;;;;271.45;182.95;;;13.10;96.30;;;;;;4970078;28;20062;-69
2022/08/09 00:31:21;;;;;;;322.88;197.10;;;13.10;96.30;;;;;;4971742;28;20161;-70
2022/08/09 00:33:48;;;;;;;311.17;211.77;;;13.10;96.40;;;;;;4986703;28;20062;-70
2022/08/09 00:36:15;;;;;;;328.90;232.38;;;13.00;96.40;;;;;;4971378;28;20484;-70
2022/08/09 00:38:42;;;;;;;276.15;183.68;;;13.00;96.40;;;;;;4990845;28;20051;-69
2022/08/09 00:41:09;;;;;;;301.63;201.32;;;13.00;96.40;;;;;;4989737;28;20062;-70
2022/08/09 00:43:36;;;;;;;949.70;218.00;;;13.00;96.50;;;;;;4989691;28;20134;-69
2022/08/09 00:46:05;;;;;;;524.15;193.48;;;12.90;96.50;;;;;;4973273;28;20622;-69
2022/08/09 00:48:33;;;;;;;1999.90;255.85;;;12.90;96.50;;;;;;4990625;28;20144;-69
2022/08/09 00:51:03;;;;;;;263.60;174.90;;;12.90;96.50;;;;;;4991173;28;20059;-70
2022/08/09 00:53:31;;;;;;;334.15;215.40;;;12.80;96.50;;;;;;4989874;28;20062;-70
2022/08/09 00:55:58;;;;;;;297.38;199.85;;;12.80;96.60;;;;;;5009012;28;20624;-69
2022/08/09 00:58:25;;;;;;;352.00;239.57;;;12.70;96.60;;;;;;4993934;28;20055;-70
2022/08/09 01:00:54;;;;;;;338.92;231.05;;;12.70;96.60;;;;;;4993129;28;20047;-69
2022/08/09 01:03:35;;;;;;;400.00;281.30;;;12.70;96.70;;;;;;4994218;28;20054;-69
2022/08/09 01:06:07;;;;;;;365.98;247.73;;;12.70;96.70;;;;;;4992983;28;20077;-70
2022/08/09 01:08:42;;;;;;;387.30;268.80;;;12.70;96.70;;;;;;4993608;28;20074;-70
2022/08/09 01:11:23;;;;;;;352.92;237.68;;;12.70;96.70;;;;;;4990359;28;20485;-69
2022/08/09 01:13:56;;;;;;;411.35;284.15;;;12.70;96.70;;;;;;4973457;28;20051;-70
2022/08/09 01:16:27;;;;;;;415.00;284.55;;;12.70;96.80;;;;;;4974443;28;20055;-70
2022/08/09 01:19:01;;;;;;;393.88;272.30;;;12.70;96.80;;;;;;4972950;28;20600;-69
2022/08/09 01:21:43;;;;;;;405.92;256.10;;;12.60;96.80;;;;;;4973100;28;20528;-69
2022/08/09 01:24:17;;;;;;;348.63;235.82;;;12.60;96.80;;;;;;4973272;28;20541;-69
2022/08/09 01:26:54;;;;;;;384.63;266.10;;;12.60;96.80;;;;;;4974552;28;20625;-69
2022/08/09 01:29:29;;;;;;;691.47;274.70;;;12.60;96.80;;;;;;4972691;28;20047;-69
2022/08/09 01:31:59;;;;;;;441.40;254.95;;;12.60;96.80;;;;;;4972776;28;20059;-69
2022/08/09 01:34:28;;;;;;;663.58;269.48;;;12.50;96.80;;;;;;4973149;28;20653;-69
2022/08/09 01:36:57;;;;;;;439.58;246.65;;;12.50;96.80;;;;;;4972706;28;20548;-69
2022/08/09 01:39:26;;;;;;;703.60;274.80;;;12.50;96.90;;;;;;4973064;28;20061;-70
2022/08/09 01:41:56;;;;;;;481.67;252.77;;;12.50;96.90;;;;;;4973803;28;20062;-70
2022/08/09 01:44:25;;;;;;;369.55;246.07;;;12.40;96.90;;;;;;4971175;28;20130;-69
2022/08/09 01:46:53;;;;;;;389.15;264.52;;;12.40;96.90;;;;;;4972866;28;20126;-68
2022/08/09 01:49:21;;;;;;;364.30;247.70;;;12.40;96.90;;;;;;4973877;28;20055;-69
2022/08/09 01:51:52;;;;;;;360.27;241.98;;;12.40;96.90;;;;;;4974137;28;20047;-69
2022/08/09 01:54:21;;;;;;;340.50;226.60;;;12.40;96.90;;;;;;4972475;28;20130;-69
2022/08/09 01:56:50;;;;;;;435.52;215.60;;;12.30;97.10;;;;;;4972363;28;20050;-69
2022/08/09 01:59:21;;;;;;;390.23;221.57;;;12.30;97.00;;;;;;4972850;28;20047;-69
2022/08/09 02:01:52;;;;;;;357.58;209.20;;;12.20;97.00;;;;;;4972778;28;20526;-69
2022/08/09 02:04:21;;;;;;;313.52;193.25;;;12.20;97.00;;;;;;4989509;28;20134;-69
2022/08/09 02:07:10;;;;;;;328.35;203.00;;;12.10;97.00;;;;;;4971978;28;20055;-69
2022/08/09 02:09:42;;;;;;;287.00;173.75;;;12.10;97.00;;;;;;4974047;28;20133;-69
2022/08/09 02:12:11;;;;;;;300.65;184.85;;;12.00;97.00;;;;;;4973854;28;20051;-69
2022/08/09 02:14:43;;;;;;;353.30;218.43;;;11.90;97.00;;;;;;4972272;28;20508;-69
2022/08/09 02:17:12;;;;;;;346.50;219.02;;;11.90;97.00;;;;;;4970043;28;20052;-69
2022/08/09 02:19:39;;;;;;;299.83;187.35;;;11.80;97.10;;;;;;4972292;28;20053;-68
2022/08/09 02:22:13;;;;;;;421.40;190.88;;;11.80;96.90;;;;;;4972535;28;20103;-68
2022/08/09 02:24:45;;;;;;;361.98;200.75;;;11.80;97.00;;;;;;4973433;28;20062;-69
2022/08/09 02:27:15;;;;;;;290.67;176.07;;;11.70;97.00;;;;;;4973214;28;20051;-69
2022/08/09 02:29:48;;;;;;;293.20;173.50;;;11.60;97.00;;;;;;4955517;28;20054;-68
2022/08/09 02:32:18;;;;;;;293.77;173.32;;;11.60;97.00;;;;;;4971892;28;20047;-69
2022/08/09 02:34:48;;;;;;;287.90;166.95;;;11.50;97.00;;;;;;4972208;28;20053;-68
2022/08/09 02:37:18;;;;;;;300.27;169.65;;;11.40;97.00;;;;;;4971702;28;20053;-69
2022/08/09 02:39:49;;;;;;;304.52;172.95;;;11.40;97.00;;;;;;4973458;28;20051;-68
2022/08/09 02:42:21;;;;;;;329.67;171.10;;;11.40;97.00;;;;;;4973529;28;20089;-68
2022/08/09 02:44:55;;;;;;;352.15;165.77;;;11.30;97.10;;;;;;4971658;28;20055;-68
2022/08/09 02:47:23;;;;;;;398.60;164.70;;;11.30;97.10;;;;;;4971143;28;20067;-68
2022/08/09 02:49:56;;;;;;;307.52;168.00;;;11.20;97.10;;;;;;4969922;28;20059;-70
2022/08/09 02:52:28;;;;;;;303.10;168.27;;;11.20;97.10;;;;;;4954264;28;20051;-69
2022/08/09 02:54:56;;;;;;;333.58;165.57;;;11.10;97.10;;;;;;4971543;28;20062;-68
2022/08/09 02:57:24;;;;;;;316.38;167.15;;;11.10;97.20;;;;;;4970454;28;20062;-69
2022/08/09 02:59:55;;;;;;;295.92;164.32;;;11.10;97.20;;;;;;4970001;28;20668;-69
2022/08/09 03:02:22;;;;;;;405.88;172.15;;;11.10;97.20;;;;;;4969871;28;20536;-69
2022/08/09 03:04:51;;;;;;;306.60;170.57;;;11.10;97.20;;;;;;4971153;28;20208;-68
2022/08/09 03:07:18;;;;;;;302.15;169.13;;;11.10;97.20;;;;;;4972227;28;20418;-68
2022/08/09 03:09:46;;;;;;;316.13;170.38;;;11.10;97.30;;;;;;4971751;28;20055;-68
2022/08/09 03:12:14;;;;;;;296.40;169.50;;;11.10;97.30;;;;;;4972802;28;20105;-69
2022/08/09 03:14:42;;;;;;;304.75;169.07;;;11.10;97.40;;;;;;4971506;28;20057;-69
2022/08/09 03:17:12;;;;;;;298.10;173.02;;;11.10;97.40;;;;;;4970409;28;20636;-69
2022/08/09 03:19:41;;;;;;;388.38;176.48;;;11.10;97.40;;;;;;4971186;28;20097;-70
2022/08/09 03:22:09;;;;;;;319.88;174.18;;;11.10;97.50;;;;;;4978519;28;20061;-69
2022/08/09 03:24:36;;;;;;;552.47;184.07;;;11.10;97.50;;;;;;4992224;28;20065;-69
2022/08/09 03:27:05;;;;;;;726.55;191.57;;;11.10;97.50;;;;;;4990024;28;20054;-69
2022/08/09 03:29:33;;;;;;;925.10;191.90;;;11.20;97.80;;;;;;4991704;28;20055;-69
2022/08/09 03:32:00;;;;;;;1033.03;203.15;;;11.20;97.70;;;;;;4992196;28;20501;-69
2022/08/09 03:34:29;;;;;;;620.72;179.57;;;11.20;97.70;;;;;;4990955;28;20046;-69
2022/08/09 03:36:57;;;;;;;278.58;167.40;;;11.20;97.60;;;;;;4990238;28;20126;-69
2022/08/09 03:39:26;;;;;;;275.88;163.48;;;11.10;97.50;;;;;;4990487;28;20498;-69
2022/08/09 03:41:54;;;;;;;278.50;163.50;;;11.10;97.50;;;;;;4990288;28;20055;-69
2022/08/09 03:44:21;;;;;;;284.02;166.10;;;11.00;97.50;;;;;;4991792;28;20054;-69
2022/08/09 03:46:48;;;;;;;274.15;165.93;;;11.00;97.50;;;;;;4990185;28;20552;-70
2022/08/09 03:49:17;;;;;;;1188.80;189.60;;;11.00;97.50;;;;;;4989860;28;20182;-69
2022/08/09 03:51:49;;;;;;;1728.93;229.55;;;11.00;97.60;;;;;;4991533;28;20055;-69
2022/08/09 03:54:16;;;;;;;1674.63;224.75;;;11.00;97.60;;;;;;4989252;28;20182;-69
2022/08/09 03:56:44;;;;;;;1061.78;201.40;;;11.00;97.60;;;;;;5003003;28;20529;-69
2022/08/09 03:59:13;;;;;;;605.42;176.63;;;11.00;97.60;;;;;;4971767;28;20522;-69
2022/08/09 04:01:41;;;;;;;585.60;181.52;;;11.00;97.70;;;;;;4970647;28;20082;-69
2022/08/09 04:04:09;;;;;;;1108.35;203.63;;;10.90;97.60;;;;;;4970726;28;20085;-69
2022/08/09 04:06:37;;;;;;;273.05;167.18;;;11.00;97.70;;;;;;4970633;28;20055;-69
2022/08/09 04:09:06;;;;;;;1038.35;199.65;;;11.00;97.80;;;;;;4971647;28;20572;-69
2022/08/09 04:11:57;;;;;;;819.92;188.18;;;11.00;97.80;;;;;;4971061;28;20059;-69
2022/08/09 04:14:24;;;;;;;1999.90;236.68;;;11.00;97.80;;;;;;4987104;28;20073;-69
2022/08/09 04:16:51;;;;;;;1197.15;205.57;;;11.10;97.90;;;;;;4971686;28;20047;-69
2022/08/09 04:19:18;;;;;;;734.75;179.98;;;11.20;97.90;;;;;;4970332;28;20086;-69
2022/08/09 04:21:45;;;;;;;334.33;149.95;;;11.20;97.90;;;;;;4986983;28;20388;-69
2022/08/09 04:24:13;;;;;;;1198.88;212.25;;;11.20;97.90;;;;;;4970461;28;20047;-69
2022/08/09 04:26:40;;;;;;;751.75;189.05;;;11.20;97.90;;;;;;4971931;28;20518;-69
2022/08/09 04:29:07;;;;;;;483.67;176.68;;;11.30;98.00;;;;;;4984276;28;20058;-70
2022/08/09 04:31:34;;;;;;;555.03;182.07;;;11.30;98.00;;;;;;4990281;28;20524;-69
2022/08/09 04:34:01;;;;;;;426.80;177.55;;;11.30;98.00;;;;;;4989881;28;20532;-69
2022/08/09 04:36:29;;;;;;;331.88;175.38;;;11.40;98.10;;;;;;4991251;28;20521;-69
2022/08/09 04:38:57;;;;;;;376.58;174.90;;;11.40;98.10;;;;;;4989495;28;20054;-69
2022/08/09 04:41:27;;;;;;;879.70;200.75;;;11.50;98.20;;;;;;4989845;28;20122;-69
2022/08/09 04:43:55;;;;;;;585.00;187.70;;;11.60;98.20;;;;;;4990024;28;20057;-69
2022/08/09 04:46:22;;;;;;;289.27;173.90;;;11.70;98.30;;;;;;4973439;28;20049;-69
2022/08/09 04:48:49;;;;;;;250.82;158.88;;;11.80;98.30;;;;;;4990809;28;20055;-69
2022/08/09 04:51:16;;;;;;;406.80;153.10;;;11.90;98.30;;;;;;4991108;28;20054;-69
2022/08/09 04:53:43;;;;;;;259.27;161.57;;;11.90;98.20;;;;;;4991205;28;20054;-69
2022/08/09 04:56:10;;;;;;;268.30;171.60;;;11.90;98.20;;;;;;4991040;28;20051;-69
2022/08/09 04:58:38;;;;;;;346.13;181.52;;;11.90;98.30;;;;;;4991080;28;20190;-69
2022/08/09 05:01:05;;;;;;;265.02;170.23;;;12.00;98.30;;;;;;4985914;28;20051;-69
2022/08/09 05:03:32;;;;;;;321.25;182.55;;;12.00;98.30;;;;;;4980518;28;20109;-69
2022/08/09 05:05:59;;;;;;;267.88;173.57;;;12.00;98.30;;;;;;4979975;28;20063;-69
2022/08/09 05:08:26;;;;;;;341.25;180.82;;;12.10;98.40;;;;;;4997692;28;20075;-69
2022/08/09 05:10:55;;;;;;;256.33;165.20;;;12.10;98.50;;;;;;4971894;28;20509;-69
2022/08/09 05:13:22;;;;;;;288.88;180.35;;;12.20;98.50;;;;;;4969911;28;20051;-69
2022/08/09 05:15:50;;;;;;;312.63;187.27;;;12.20;98.40;;;;;;4970243;28;20463;-69
2022/08/09 05:18:17;;;;;;;345.45;191.20;;;12.30;98.50;;;;;;4971151;28;20150;-69
2022/08/09 05:20:44;;;;;;;290.17;187.25;;;12.40;98.60;;;;;;4973180;28;20055;-69
2022/08/09 05:23:10;;;;;;;292.73;192.45;;;12.50;98.70;;;;;;4972425;28;20047;-69
2022/08/09 05:25:37;;;;;;;322.58;194.48;;;12.50;98.60;;;;;;4978970;28;20043;-69
2022/08/09 05:28:05;;;;;;;290.63;187.48;;;12.60;98.70;;;;;;4977508;28;20059;-70
2022/08/09 05:30:33;;;;;;;299.38;193.77;;;12.70;98.70;;;;;;4975733;28;20055;-69
2022/08/09 05:33:01;;;;;;;287.60;189.48;;;12.80;98.80;;;;;;4993876;28;20043;-69
2022/08/09 05:35:28;;;;;;;249.13;163.93;;;12.90;98.80;;;;;;4982072;28;20054;-71
2022/08/09 05:37:55;;;;;;;286.92;191.20;;;13.00;98.90;;;;;;4998862;28;20051;-69
2022/08/09 05:40:24;;;;;;;287.17;191.77;;;13.10;98.90;;;;;;4984582;28;20532;-70
2022/08/09 05:42:51;;;;;;;287.30;193.32;;;13.20;98.90;;;;;;4986796;28;20592;-70
2022/08/09 05:45:22;;;;;;;290.15;196.27;;;13.30;98.90;;;;;;5002847;28;20051;-70
2022/08/09 05:47:49;;;;;;;291.25;196.68;;;13.40;99.00;;;;;;4987077;28;20051;-70
2022/08/09 05:50:18;;;;;;;288.30;197.98;;;13.50;99.00;;;;;;4992573;28;20054;-70
2022/08/09 05:52:45;;;;;;;292.17;198.25;;;13.60;99.00;;;;;;4987938;28;20202;-70
2022/08/09 05:55:12;;;;;;;284.67;198.32;;;13.70;99.10;;;;;;4984580;28;20044;-70
2022/08/09 05:57:39;;;;;;;280.95;193.75;;;13.80;99.00;;;;;;4975070;28;20043;-70
2022/08/09 06:00:07;;;;;;;275.98;191.88;;;13.90;99.10;;;;;;4975971;28;20053;-70
2022/08/09 06:02:38;;;;;;;274.27;191.07;;;14.00;99.10;;;;;;4973965;28;20091;-70
2022/08/09 06:05:06;;;;;;;272.55;190.75;;;14.10;99.20;;;;;;4974807;28;20082;-70
2022/08/09 06:07:34;;;;;;;278.88;196.88;;;14.20;99.20;;;;;;4979497;28;20399;-70
2022/08/09 06:10:02;;;;;;;277.73;195.48;;;14.30;99.30;;;;;;4974669;28;20055;-70
2022/08/09 06:12:29;;;;;;;274.20;191.32;;;14.40;99.30;;;;;;4986952;28;20062;-70
2022/08/09 06:14:56;;;;;;;284.20;201.45;;;14.50;99.40;;;;;;4987158;28;20106;-71
2022/08/09 06:17:23;;;;;;;269.45;193.07;;;14.60;99.40;;;;;;4967414;28;20137;-70
2022/08/09 06:19:49;;;;;;;273.52;194.82;;;14.70;99.40;;;;;;4944024;28;20514;-70
2022/08/09 06:22:16;;;;;;;280.05;197.98;;;14.80;99.50;;;;;;4972834;28;20130;-70
2022/08/09 06:24:44;;;;;;;271.85;196.30;;;14.90;99.50;;;;;;4972404;28;20039;-70
2022/08/09 06:27:12;;;;;;;268.45;198.40;;;15.00;99.60;;;;;;4976231;28;20566;-70
2022/08/09 06:29:38;;;;;;;282.55;207.57;;;15.10;99.50;;;;;;4972429;28;20472;-70
2022/08/09 06:32:06;;;;;;;267.63;198.00;;;15.20;99.50;;;;;;4979443;28;20436;-71
2022/08/09 06:34:33;;;;;;;270.05;195.30;;;15.40;99.60;;;;;;4998622;28;20043;-70
2022/08/09 06:37:00;;;;;;;267.70;199.20;;;15.50;99.60;;;;;;4979309;28;20061;-70
2022/08/09 06:39:28;;;;;;;269.20;198.73;;;15.60;99.70;;;;;;4971742;28;20059;-70
2022/08/09 06:41:56;;;;;;;279.45;210.90;;;15.70;99.80;;;;;;4981526;28;20505;-71
2022/08/09 06:44:25;;;;;;;261.15;192.05;;;15.80;99.80;;;;;;4977006;28;20586;-71
2022/08/09 06:46:52;;;;;;;258.45;195.45;;;15.90;99.80;;;;;;4994684;28;20145;-71
2022/08/09 06:49:19;;;;;;;255.30;192.65;;;16.00;99.80;;;;;;4980403;28;20125;-71
2022/08/09 06:51:46;;;;;;;258.50;191.43;;;16.10;99.70;;;;;;4980326;28;20138;-70
2022/08/09 06:54:13;;;;;;;266.38;199.63;;;16.20;99.70;;;;;;4983726;28;20050;-70
2022/08/09 06:56:40;;;;;;;254.85;189.75;;;16.30;99.80;;;;;;4980877;28;20501;-70
2022/08/09 06:59:08;;;;;;;262.00;197.48;;;16.40;99.90;;;;;;4986448;28;20541;-71
2022/08/09 07:01:35;;;;;;;259.50;197.38;;;16.50;99.80;;;;;;4999342;28;20057;-70
2022/08/09 07:04:02;;;;;;;256.25;197.00;;;16.60;99.80;;;;;;4974724;28;20058;-71
2022/08/09 07:06:29;;;;;;;290.00;233.75;;;16.70;99.80;;;;;;4972028;28;20050;-70
2022/08/09 07:08:56;;;;;;;288.75;223.73;;;16.80;99.80;;;;;;4978643;28;20125;-71
2022/08/09 07:11:23;;;;;;;276.73;217.93;;;16.90;99.80;;;;;;4989641;28;20540;-71
2022/08/09 07:13:50;;;;;;;266.50;206.10;;;17.00;99.90;;;;;;4981944;28;20039;-71
2022/08/09 07:16:18;;;;;;;272.92;212.65;;;17.10;99.90;;;;;;4978635;28;20593;-71
2022/08/09 07:18:45;;;;;;;206.30;164.75;;;17.20;99.70;;;;;;4999029;28;20090;-71
2022/08/09 07:21:12;;;;;;;308.02;232.45;;;17.30;99.80;;;;;;4981087;28;20061;-71
2022/08/09 07:23:40;;;;;;;269.42;211.68;;;17.40;99.80;;;;;;4979686;28;20077;-71
2022/08/09 07:26:07;;;;;;;289.88;232.02;;;17.50;99.70;;;;;;4978716;28;20055;-71
2022/08/09 07:28:34;;;;;;;260.40;209.48;;;17.60;99.60;;;;;;4981691;28;20086;-71
2022/08/09 07:31:03;;;;;;;256.70;205.45;;;17.70;99.60;;;;;;4980251;28;20054;-71
2022/08/09 07:33:33;;;;;;;259.52;208.95;;;17.70;99.50;;;;;;4981034;28;20050;-71
2022/08/09 07:36:00;;;;;;;292.10;236.00;;;17.80;99.40;;;;;;4996006;28;20071;-71
2022/08/09 07:38:27;;;;;;;291.73;238.07;;;17.90;99.40;;;;;;4989979;28;20051;-71
2022/08/09 07:40:54;;;;;;;250.95;198.75;;;17.90;99.30;;;;;;4990175;28;20051;-71
2022/08/09 07:43:21;;;;;;;249.05;200.35;;;17.90;99.20;;;;;;4988893;28;20051;-71
2022/08/09 07:45:48;;;;;;;247.27;197.85;;;17.90;99.20;;;;;;5004963;28;20109;-71
2022/08/09 07:48:15;;;;;;;255.95;207.55;;;18.00;99.20;;;;;;4988337;28;20058;-71
2022/08/09 07:50:43;;;;;;;249.00;200.52;;;18.10;99.10;;;;;;4987209;28;20054;-71
2022/08/09 07:53:10;;;;;;;249.02;200.63;;;18.20;99.10;;;;;;4968943;28;20059;-71
2022/08/09 07:55:37;;;;;;;245.85;202.85;;;18.30;99.00;;;;;;4985514;28;20051;-71
2022/08/09 07:58:04;;;;;;;245.77;202.85;;;18.40;98.80;;;;;;4971749;28;20062;-71
2022/08/09 08:00:31;;;;;;;279.25;203.82;;;18.50;98.60;;;;;;4972126;28;20055;-71
2022/08/09 08:02:59;;;;;;;240.63;199.10;;;18.60;98.70;;;;;;4985966;28;20492;-71
2022/08/09 08:05:27;;;;;;;247.90;206.20;;;18.60;98.40;;;;;;4975221;28;20054;-72
2022/08/09 08:07:56;;;;;;;245.52;200.45;;;18.70;98.40;;;;;;4979469;28;20061;-72
2022/08/09 08:10:23;;;;;;;246.82;203.52;;;18.90;98.20;;;;;;4970795;28;20063;-72
2022/08/09 08:12:50;;;;;;;244.32;204.98;;;18.90;98.20;;;;;;4985700;28;20118;-72
2022/08/09 08:15:18;;;;;;;247.52;206.88;;;19.00;97.80;;;;;;4999269;28;20058;-72
2022/08/09 08:17:50;;;;;;;248.23;211.13;;;19.00;97.90;;;;;;4984637;28;20054;-72
2022/08/09 08:20:17;;;;;;;245.95;209.20;;;19.20;97.90;;;;;;4981322;28;20485;-72
2022/08/09 08:22:44;;;;;;;249.00;215.07;;;19.30;97.90;;;;;;4977921;28;20050;-72
2022/08/09 08:25:12;;;;;;;248.27;212.73;;;19.40;97.60;;;;;;4974405;28;20480;-72
2022/08/09 08:27:39;;;;;;;256.38;225.02;;;19.50;97.60;;;;;;4975617;28;20054;-72
2022/08/09 08:30:07;;;;;;;239.52;208.57;;;19.60;97.10;;;;;;4976244;28;20442;-72
2022/08/09 08:32:34;;;;;;;247.77;220.40;;;19.70;96.90;;;;;;4990396;28;20051;-72
2022/08/09 08:35:01;;;;;;;252.30;224.55;;;19.80;96.80;;;;;;4977092;28;20052;-72
2022/08/09 08:37:28;;;;;;;251.27;223.85;;;19.90;96.80;;;;;;4967121;28;20050;-72
2022/08/09 08:39:55;;;;;;;264.48;234.23;;;20.00;96.20;;;;;;4976047;28;20051;-72
2022/08/09 08:42:24;;;;;;;282.05;251.45;;;20.10;95.60;;;;;;4977756;28;20541;-72
2022/08/09 08:44:56;;;;;;;258.27;229.75;;;20.30;95.50;;;;;;4980767;28;20444;-72
2022/08/09 08:47:24;;;;;;;261.92;233.75;;;20.40;95.60;;;;;;4997151;28;20055;-72
2022/08/09 08:49:51;;;;;;;256.60;228.88;;;20.60;95.40;;;;;;4980155;28;20821;-72
2022/08/09 08:52:20;;;;;;;311.23;278.73;;;20.70;94.40;;;;;;4980435;28;20059;-73
2022/08/09 08:54:48;;;;;;;317.20;284.40;;;20.80;94.70;;;;;;4979723;28;20051;-73
2022/08/09 08:57:15;;;;;;;334.25;299.90;;;20.90;94.80;;;;;;4977302;28;20082;-73
2022/08/09 08:59:44;;;;;;;336.52;302.10;;;20.90;93.80;;;;;;4981217;28;20163;-72
2022/08/09 09:02:22;;;;;;;339.83;305.63;;;21.00;94.40;;;;;;4982993;28;20052;-73
2022/08/09 09:04:51;;;;;;;323.85;290.80;;;21.20;95.10;;;;;;4982472;28;20048;-72
2022/08/09 09:07:19;;;;;;;344.13;309.92;;;21.40;94.60;;;;;;4990192;28;20047;-73
2022/08/09 09:09:47;;;;;;;356.75;321.05;;;21.50;93.40;;;;;;4977174;28;20454;-73
2022/08/09 09:12:15;;;;;;;350.08;314.77;;;21.60;93.40;;;;;;4972430;28;20106;-72
2022/08/09 09:14:45;;;;;;;304.92;273.33;;;21.50;93.10;;;;;;4970340;28;20098;-73
2022/08/09 09:17:12;;;;;;;320.10;287.45;;;21.40;92.70;;;;;;4973929;28;20079;-73
2022/08/09 09:19:39;;;;;;;316.95;284.48;;;21.40;93.00;;;;;;4981140;28;20055;-72
2022/08/09 09:22:08;;;;;;;326.45;293.05;;;21.30;92.30;;;;;;4979471;28;20138;-72
2022/08/09 09:24:37;;;;;;;302.13;270.55;;;21.30;92.60;;;;;;4974837;28;20106;-72
2022/08/09 09:27:06;;;;;;;320.40;287.63;;;21.30;92.30;;;;;;5004107;28;20058;-72
2022/08/09 09:29:35;;;;;;;305.83;274.52;;;21.30;92.60;;;;;;4986334;28;20498;-72
2022/08/09 09:32:05;;;;;;;313.20;281.05;;;21.40;93.20;;;;;;4966413;28;20643;-72
2022/08/09 09:34:32;;;;;;;375.48;338.27;;;21.40;92.30;;;;;;4980539;28;20174;-72
2022/08/09 09:37:00;;;;;;;380.70;343.35;;;21.50;92.30;;;;;;4977321;28;20059;-73
2022/08/09 09:39:28;;;;;;;336.15;302.25;;;21.50;92.20;;;;;;4980874;28;20043;-73
2022/08/09 09:41:55;;;;;;;304.50;273.60;;;21.60;92.10;;;;;;4997993;28;20548;-73
2022/08/09 09:44:28;;;;;;;315.48;283.92;;;21.60;91.70;;;;;;4980508;28;21047;-73
2022/08/09 09:46:57;;;;;;;319.65;287.50;;;21.60;91.60;;;;;;4979566;28;20050;-72
2022/08/09 09:49:26;;;;;;;398.42;360.13;;;21.60;92.10;;;;;;4970786;28;20146;-73
2022/08/09 09:52:02;;;;;;;337.70;304.52;;;21.80;92.50;;;;;;4981556;28;20082;-73
2022/08/09 09:54:36;;;;;;;362.73;327.38;;;22.00;91.70;;;;;;4983492;28;20065;-74
2022/08/09 09:57:14;;;;;;;406.42;367.98;;;22.10;90.90;;;;;;4980323;28;20054;-74
2022/08/09 09:59:42;;;;;;;399.52;360.75;;;22.10;90.00;;;;;;4988108;28;20055;-74
2022/08/09 10:02:10;;;;;;;395.60;358.10;;;22.10;90.00;;;;;;4987249;28;20056;-74
2022/08/09 10:04:39;;;;;;;387.83;350.98;;;22.30;90.60;;;;;;4938380;28;22946;-73
2022/08/09 10:07:21;;;;;;;388.63;351.92;;;22.40;90.60;;;;;;4980156;28;20156;-73
2022/08/09 10:09:50;;;;;;;411.67;373.85;;;22.60;89.40;;;;;;4965604;28;20049;-73
2022/08/09 10:12:25;;;;;;;577.13;531.03;;;22.80;89.50;;;;;;4984704;28;20053;-73
2022/08/09 10:15:02;;;;;;;537.25;492.50;;;22.90;88.40;;;;;;5001410;28;20537;-73
2022/08/09 10:17:32;;;;;;;460.05;419.40;;;23.00;86.70;;;;;;4985526;28;20509;-73
2022/08/09 10:20:01;;;;;;;488.20;446.58;;;23.10;84.70;;;;;;4978014;28;20137;-73
2022/08/09 10:22:32;;;;;;;655.67;606.45;;;23.20;84.20;;;;;;4991679;28;20055;-73
2022/08/09 10:25:00;;;;;;;425.65;387.80;;;23.30;84.00;;;;;;4991646;28;20078;-73
2022/08/09 10:27:27;;;;;;;760.22;701.90;;;23.40;83.70;;;;;;4994968;28;20540;-73
2022/08/09 10:29:54;;;;;;;372.60;338.95;;;23.60;83.10;;;;;;5005226;28;20166;-73
2022/08/09 10:32:22;;;;;;;635.03;587.13;;;23.70;83.00;;;;;;4981324;28;20051;-73
2022/08/09 10:34:49;;;;;;;386.98;352.30;;;23.90;82.70;;;;;;4949213;28;20044;-73
2022/08/09 10:37:18;;;;;;;441.30;403.20;;;23.90;82.80;;;;;;4980832;28;20150;-73
2022/08/09 10:39:46;;;;;;;359.42;326.92;;;23.90;79.50;;;;;;5004000;28;20071;-73
2022/08/09 10:42:14;;;;;;;494.55;453.65;;;23.90;80.30;;;;;;4982119;28;20059;-73
2022/08/09 10:44:43;;;;;;;399.38;363.95;;;24.10;80.10;;;;;;4966837;28;20607;-73
2022/08/09 10:47:40;;;;;;;368.77;335.70;;;24.10;80.80;;;;;;4980984;28;20055;-73
2022/08/09 10:50:16;;;;;;;482.15;441.58;;;24.20;79.90;;;;;;4981591;28;20055;-73
2022/08/09 10:53:03;;;;;;;379.25;345.27;;;24.30;78.00;;;;;;4980665;28;20055;-73
2022/08/09 10:55:35;;;;;;;376.35;342.90;;;24.40;79.20;;;;;;4983042;28;20055;-74
2022/08/09 10:58:02;;;;;;;497.45;457.05;;;24.50;81.80;;;;;;4990971;28;20054;-74
2022/08/09 11:00:39;;;;;;;413.90;377.90;;;24.60;75.50;;;;;;4991819;28;20610;-73
2022/08/09 11:03:22;;;;;;;385.30;351.67;;;24.60;77.70;;;;;;5003842;28;20169;-74
2022/08/09 11:06:07;;;;;;;;;;;24.60;79.00;;;;;;4915999;28;20050;-74
2022/08/09 11:08:43;;;;;;;360.58;328.35;;;24.80;79.70;;;;;;4971995;28;20021;-74
2022/08/09 11:11:10;;;;;;;459.77;421.77;;;25.00;79.00;;;;;;4971093;28;20055;-74
2022/08/09 11:13:37;;;;;;;372.58;340.38;;;25.10;75.90;;;;;;4971109;28;20051;-74
2022/08/09 11:16:33;;;;;;;591.05;547.30;;;25.20;74.40;;;;;;4974915;28;20050;-75
2022/08/09 11:19:00;;;;;;;395.75;362.05;;;25.30;74.40;;;;;;4982814;28;20057;-73
2022/08/09 11:21:50;;;;;;;434.75;398.90;;;25.30;72.30;;;;;;4972967;28;20043;-73
2022/08/09 11:24:18;;;;;;;383.77;351.25;;;25.10;73.20;;;;;;4991094;28;20055;-74
2022/08/09 11:26:47;;;;;;;475.40;437.63;;;25.20;73.50;;;;;;4979904;28;20043;-74
2022/08/09 11:29:47;;;;;;;401.80;368.20;;;25.10;74.10;;;;;;4995140;28;20057;-74
2022/08/09 11:32:41;;;;;;;485.10;446.63;;;25.10;71.70;;;;;;4973620;28;20058;-74
2022/08/09 11:35:14;;;;;;;490.50;451.85;;;25.10;73.70;;;;;;4960779;28;20043;-74
2022/08/09 11:37:42;;;;;;;;;;;25.10;74.00;;;;;;4983398;28;20534;-74
2022/08/09 11:40:13;;;;;;;407.33;373.13;;;25.10;72.60;;;;;;4976362;28;20388;-74
2022/08/09 11:42:48;;;;;;;393.35;359.75;;;25.00;71.20;;;;;;4981411;28;20054;-75
2022/08/09 11:45:23;;;;;;;588.72;545.15;;;24.90;72.80;;;;;;4980898;28;20047;-74
2022/08/09 11:47:52;;;;;;;459.95;423.02;;;25.10;73.70;;;;;;4977872;28;20106;-74
2022/08/09 11:50:19;;;;;;;480.48;442.98;;;25.30;72.90;;;;;;4977738;28;20053;-75
2022/08/09 11:53:19;;;;;;;478.63;441.45;;;25.50;73.40;;;;;;4982515;28;20161;-74
2022/08/09 11:55:48;;;;;;;434.15;399.38;;;25.60;72.20;;;;;;5001547;28;20057;-69
2022/08/09 11:58:42;;;;;;;415.67;381.67;;;25.70;72.20;;;;;;4977645;28;20787;-69
2022/08/09 12:01:10;;;;;;;403.80;370.80;;;25.70;72.30;;;;;;4984528;28;20518;-69
2022/08/09 12:03:38;;;;;;;486.75;450.00;;;25.90;70.30;;;;;;4979031;28;20998;-70
2022/08/09 12:06:18;;;;;;;373.92;343.52;;;26.10;71.00;;;;;;4981370;28;20460;-69
2022/08/09 12:08:50;;;;;;;366.92;337.13;;;26.20;72.30;;;;;;4983541;28;20058;-70
2022/08/09 12:11:20;;;;;;;902.22;845.17;;;26.40;72.10;;;;;;4980527;28;20206;-71
2022/08/09 12:13:49;;;;;;;863.45;809.15;;;26.30;70.00;;;;;;4980145;28;20047;-72
2022/08/09 12:16:18;;;;;;;601.55;558.72;;;26.50;70.80;;;;;;4980384;28;20054;-71
2022/08/09 12:18:47;;;;;;;756.97;708.05;;;26.80;68.10;;;;;;4977830;28;20695;-72
2022/08/09 12:21:25;;;;;;;924.95;863.55;;;26.90;71.00;;;;;;4996171;28;20058;-71